Time;durP1;ratioP1;P1;durP2;ratioP2;P2;SDS_P1;SDS_P2;PMS_P1;PMS_P2;Temp;Humidity;BMP_temperature;BMP_pressure;BME280_temperature;BME280_humidity;BME280_pressure;Samples;Min_cycle;Max_cycle;Signal;HPM_P1;HPM_P2
2022/04/01 00:01:20;;;;;;;12.77;4.32;;;;;;;10.95;100.00;97993.03;4913992;29;20029;-91
2022/04/01 00:03:47;;;;;;;12.75;4.38;;;;;;;10.97;100.00;97995.47;4916717;29;20033;-85
2022/04/01 00:06:12;;;;;;;9.15;4.32;;;;;;;11.00;100.00;97995.81;4917220;29;20033;-87
2022/04/01 00:08:38;;;;;;;10.50;3.92;;;;;;;11.09;100.00;98009.53;4905038;29;20117;-84
2022/04/01 00:11:03;;;;;;;10.57;4.45;;;;;;;11.00;100.00;98013.56;4922371;29;20028;-83
2022/04/01 00:13:29;;;;;;;13.93;4.80;;;;;;;10.97;100.00;98011.34;4912313;29;20126;-89
2022/04/01 00:15:54;;;;;;;9.43;3.95;;;;;;;11.14;100.00;98014.97;4914588;29;20088;-82
2022/04/01 00:18:20;;;;;;;13.90;4.70;;;;;;;11.06;100.00;98007.34;4919719;29;20040;-83
2022/04/01 00:20:46;;;;;;;10.35;4.50;;;;;;;11.13;100.00;98016.81;4919879;29;20028;-85
2022/04/01 00:23:12;;;;;;;11.15;5.18;;;;;;;10.94;100.00;98011.81;4909928;29;20040;-88
2022/04/01 00:25:39;;;;;;;12.48;5.00;;;;;;;10.89;100.00;98025.72;4905952;29;20124;-87
2022/04/01 00:28:05;;;;;;;9.50;4.07;;;;;;;10.40;100.00;98032.06;4904914;29;20032;-86
2022/04/01 00:30:33;;;;;;;9.57;4.28;;;;;;;10.11;100.00;98027.47;4905162;29;20071;-90
2022/04/01 00:33:02;;;;;;;10.65;4.75;;;;;;;10.12;100.00;98029.88;4904540;29;20101;-88
2022/04/01 00:35:28;;;;;;;8.10;4.78;;;;;;;10.26;100.00;98025.28;4905395;29;20425;-88
2022/04/01 00:37:53;;;;;;;14.68;5.00;;;;;;;10.09;100.00;98018.94;4892915;29;20036;-89
2022/04/01 00:40:19;;;;;;;11.82;4.80;;;;;;;10.05;100.00;98013.25;4897712;29;20045;-89
2022/04/01 00:42:48;;;;;;;7.95;4.45;;;;;;;10.12;100.00;98007.91;4889796;29;20072;-88
2022/04/01 00:45:16;;;;;;;14.07;4.63;;;;;;;10.26;100.00;98004.13;4906145;29;20044;-85
2022/04/01 00:47:42;;;;;;;13.75;4.78;;;;;;;10.40;100.00;98010.06;4905662;29;20048;-86
2022/04/01 00:50:08;;;;;;;12.73;4.60;;;;;;;10.51;100.00;98007.47;4905863;29;20037;-91
2022/04/01 00:52:36;;;;;;;16.45;5.07;;;;;;;10.51;100.00;98002.16;4903458;29;20040;-90
2022/04/01 00:55:04;;;;;;;11.23;4.88;;;;;;;10.39;100.00;98001.31;4886812;29;20112;-88
2022/04/01 00:57:31;;;;;;;12.18;4.80;;;;;;;10.42;100.00;98006.16;4903206;29;20036;-89
2022/04/01 00:59:59;;;;;;;13.75;5.38;;;;;;;10.55;100.00;98003.34;4903917;29;20071;-89
2022/04/01 01:02:25;;;;;;;10.05;5.10;;;;;;;10.59;100.00;98009.00;4908409;29;20041;-84
2022/04/01 01:04:50;;;;;;;10.27;4.47;;;;;;;10.53;100.00;98005.41;4921300;29;20032;-84
2022/04/01 01:07:16;;;;;;;7.55;4.32;;;;;;;10.57;100.00;98006.56;4906382;29;20023;-87
2022/04/01 01:09:43;;;;;;;9.10;4.10;;;;;;;10.64;100.00;98011.81;4922438;29;20036;-86
2022/04/01 01:12:10;;;;;;;8.43;4.88;;;;;;;10.54;100.00;98004.38;4910118;29;20096;-88
2022/04/01 01:14:38;;;;;;;11.90;5.53;;;;;;;10.49;100.00;98006.91;4904957;29;20047;-89
2022/04/01 01:17:11;;;;;;;10.93;4.70;;;;;;;10.54;100.00;98007.03;4903512;29;20028;-88
2022/04/01 01:19:38;;;;;;;11.27;4.70;;;;;;;10.68;100.00;98003.19;4905828;29;20043;-88
2022/04/01 01:22:04;;;;;;;11.75;5.15;;;;;;;10.68;100.00;98003.19;4903996;29;20052;-88
2022/04/01 01:24:32;;;;;;;13.75;5.50;;;;;;;10.69;100.00;97998.69;4903681;29;20036;-89
2022/04/01 01:26:59;;;;;;;13.63;5.10;;;;;;;10.75;100.00;98003.91;4904094;29;20047;-88
2022/04/01 01:29:27;;;;;;;9.38;4.95;;;;;;;10.89;100.00;98002.69;4904983;29;20036;-89
2022/04/01 01:31:56;;;;;;;10.10;5.40;;;;;;;10.87;100.00;98002.09;4913545;29;20047;-85
2022/04/01 01:34:23;;;;;;;14.65;5.25;;;;;;;10.85;100.00;98006.81;4916984;29;20056;-89
2022/04/01 01:36:50;;;;;;;12.52;5.95;;;;;;;10.74;100.00;97996.97;4903912;29;20037;-92
2022/04/01 01:39:16;;;;;;;8.15;5.30;;;;;;;10.78;100.00;98002.63;4903479;29;20044;-89
2022/04/01 01:41:44;;;;;;;11.02;5.88;;;;;;;10.81;100.00;98008.28;4886403;29;20032;-86
2022/04/01 01:44:10;;;;;;;12.07;5.93;;;;;;;10.65;100.00;98005.47;4902402;29;20068;-89
2022/04/01 01:46:36;;;;;;;15.55;6.22;;;;;;;10.60;100.00;97997.38;4901505;29;20135;-86
2022/04/01 01:49:02;;;;;;;10.15;6.13;;;;;;;10.54;100.00;97991.13;4900599;29;20040;-89
2022/04/01 01:56:56;;;;;;;12.07;5.50;;;;;;;10.68;100.00;98005.81;4900888;29;20481;-90
2022/04/01 01:59:22;;;;;;;14.63;6.15;;;;;;;10.83;100.00;98008.91;4902719;29;20044;-91
2022/04/01 02:01:47;;;;;;;13.13;6.45;;;;;;;10.91;100.00;97997.16;4902535;29;20092;-86
2022/04/01 02:04:13;;;;;;;12.85;6.45;;;;;;;10.83;100.00;98000.94;4887207;29;20131;-89
2022/04/01 02:06:42;;;;;;;12.13;6.78;;;;;;;10.74;100.00;97996.97;4890599;29;20038;-91
2022/04/01 02:09:07;;;;;;;14.73;6.70;;;;;;;10.73;100.00;97990.09;4890219;29;20563;-90
2022/04/01 02:11:37;;;;;;;13.52;6.20;;;;;;;10.80;100.00;97990.78;4905317;29;20029;-89
2022/04/01 02:14:05;;;;;;;10.90;6.32;;;;;;;10.77;100.00;97980.63;4906150;29;20075;-88
2022/04/01 02:16:34;;;;;;;10.48;7.45;;;;;;;10.88;100.00;97977.22;4907370;29;20088;-90
2022/04/01 02:19:00;;;;;;;14.18;6.90;;;;;;;10.89;100.00;97989.44;4890451;29;20600;-91
2022/04/01 02:21:27;;;;;;;16.08;7.03;;;;;;;10.89;100.00;97984.13;4890253;29;20064;-87
2022/04/01 02:23:54;;;;;;;19.35;7.47;;;;;;;10.81;100.00;97988.94;4889988;29;20029;-88
2022/04/01 02:26:22;;;;;;;14.52;7.35;;;;;;;10.73;100.00;97984.78;4888587;29;20037;-88
2022/04/01 02:28:54;;;;;;;14.95;7.05;;;;;;;10.73;100.00;97994.56;4903674;29;20060;-87
2022/04/01 02:31:20;;;;;;;12.35;7.10;;;;;;;10.57;100.00;97985.38;4888398;29;20033;-88
2022/04/01 02:34:25;;;;;;;19.42;7.50;;;;;;;10.52;100.00;97987.09;4884658;29;20053;-88
2022/04/01 02:36:53;;;;;;;17.27;6.82;;;;;;;10.64;100.00;97980.03;4885631;29;20052;-87
2022/04/01 02:39:20;;;;;;;19.83;7.50;;;;;;;10.54;100.00;97980.53;4888772;29;20040;-88
2022/04/01 02:41:46;;;;;;;18.30;8.70;;;;;;;10.49;100.00;97977.75;4888641;29;20350;-88
2022/04/01 02:44:14;;;;;;;15.13;8.15;;;;;;;10.61;100.00;97985.75;4904006;29;20040;-87
2022/04/01 02:46:43;;;;;;;12.98;8.82;;;;;;;10.57;100.00;97980.09;4890548;29;20100;-86
2022/04/01 02:49:13;;;;;;;14.82;8.82;;;;;;;10.50;100.00;97978.56;4915021;29;20074;-88
2022/04/01 02:51:56;;;;;;;14.32;9.60;;;;;;;10.58;100.00;97994.13;4906402;29;20065;-92
2022/04/01 02:54:24;;;;;;;18.60;9.77;;;;;;;10.73;100.00;97995.38;4911882;29;20037;-83
2022/04/01 02:56:55;;;;;;;17.23;9.52;;;;;;;10.59;100.00;97987.81;4905726;29;20069;-84
2022/04/01 02:59:20;;;;;;;15.00;9.40;;;;;;;10.48;100.00;97984.09;4909822;29;20515;-88
2022/04/01 03:01:46;;;;;;;16.98;9.80;;;;;;;10.53;100.00;97978.13;4905403;29;20037;-87
2022/04/01 03:04:12;;;;;;;15.40;9.43;;;;;;;10.55;100.00;97971.56;4903367;29;20033;-86
2022/04/01 03:06:49;;;;;;;15.73;9.95;;;;;;;10.56;100.00;97973.19;4902251;29;20037;-89
2022/04/01 03:09:15;;;;;;;24.92;10.60;;;;;;;10.56;100.00;97975.84;4903305;29;20045;-88
2022/04/01 03:11:48;;;;;;;16.33;10.13;;;;;;;10.65;100.00;97982.44;4905244;29;20089;-85
2022/04/01 03:14:36;;;;;;;16.17;9.57;;;;;;;10.68;100.00;97987.28;4901773;29;20044;-87
2022/04/01 03:17:20;;;;;;;16.90;9.93;;;;;;;10.85;100.00;97982.16;4907825;29;20387;-89
2022/04/01 03:19:46;;;;;;;17.63;10.75;;;;;;;10.73;100.00;97981.31;4891107;29;20102;-90
2022/04/01 03:22:12;;;;;;;19.10;10.65;;;;;;;10.66;100.00;97983.25;4909931;29;20063;-89
2022/04/01 03:24:42;;;;;;;21.38;11.05;;;;;;;10.59;100.00;97991.28;4907393;29;20052;-86
2022/04/01 03:27:08;;;;;;;22.23;11.68;;;;;;;10.63;100.00;97989.81;4904662;29;20033;-86
2022/04/01 03:29:34;;;;;;;16.67;10.95;;;;;;;10.80;100.00;97990.78;4903737;29;20033;-87
2022/04/01 03:32:01;;;;;;;25.65;11.48;;;;;;;10.67;100.00;98001.53;4887167;29;20048;-89
2022/04/01 03:34:28;;;;;;;19.10;11.13;;;;;;;10.75;100.00;98005.72;4903743;29;20033;-85
2022/04/01 03:36:57;;;;;;;18.98;11.80;;;;;;;10.72;100.00;98009.66;4902055;29;20127;-87
2022/04/01 03:39:24;;;;;;;22.33;11.05;;;;;;;10.62;100.00;98004.06;4903771;29;20051;-86
2022/04/01 03:41:55;;;;;;;18.53;11.80;;;;;;;10.58;100.00;98024.09;4909779;29;20430;-87
2022/04/01 03:44:25;;;;;;;25.67;11.90;;;;;;;10.56;100.00;97999.69;4905128;29;20032;-91
2022/04/01 03:47:10;;;;;;;19.15;11.23;;;;;;;10.53;100.00;97973.66;4891314;29;20127;-85
2022/04/01 03:49:48;;;;;;;19.40;10.57;;;;;;;10.47;100.00;97979.84;4904923;29;20378;-84
2022/04/01 03:52:15;;;;;;;19.02;10.35;;;;;;;10.54;100.00;97985.06;4911345;29;20523;-89
2022/04/01 03:54:44;;;;;;;15.82;10.70;;;;;;;10.41;100.00;97982.56;4910248;29;20131;-87
2022/04/01 03:57:35;;;;;;;17.15;10.05;;;;;;;10.33;100.00;97988.97;4917436;29;20120;-83
2022/04/01 04:00:21;;;;;;;16.38;9.23;;;;;;;10.28;100.00;98004.69;4923066;29;20084;-85
2022/04/01 04:02:50;;;;;;;13.60;8.38;;;;;;;10.26;100.00;98012.06;4907756;29;20025;-84
2022/04/01 04:05:23;;;;;;;13.18;8.05;;;;;;;10.19;100.00;98008.66;4902123;29;20044;-85
2022/04/01 04:07:49;;;;;;;15.60;8.07;;;;;;;10.10;100.00;97999.38;4904541;29;20036;-89
2022/04/01 04:10:21;;;;;;;11.32;7.07;;;;;;;10.17;100.00;97995.69;4904248;29;20050;-85
2022/04/01 04:13:19;;;;;;;12.23;7.07;;;;;;;10.20;100.00;97999.72;4906118;29;20028;-86
2022/04/01 04:16:15;;;;;;;11.85;6.68;;;;;;;10.18;100.00;98007.84;4892162;29;20040;-86
2022/04/01 04:18:52;;;;;;;12.15;7.03;;;;;;;10.22;100.00;98005.59;4913624;29;20116;-87
2022/04/01 04:21:57;;;;;;;15.07;7.28;;;;;;;10.25;100.00;97991.91;4921677;29;20025;-87
2022/04/01 04:24:58;;;;;;;14.02;7.68;;;;;;;10.17;100.00;97984.28;4889639;29;20059;-88
2022/04/01 04:27:29;;;;;;;13.38;7.00;;;;;;;10.32;100.00;97992.63;4905787;29;20062;-86
2022/04/01 04:30:08;;;;;;;16.08;7.07;;;;;;;10.24;100.00;97980.50;4902805;29;20049;-85
2022/04/01 04:33:02;;;;;;;15.48;6.43;;;;;;;10.36;100.00;97999.94;4888984;29;20052;-88
2022/04/01 04:35:29;;;;;;;9.57;6.05;;;;;;;10.31;100.00;97996.31;4892003;29;20080;-83
2022/04/01 04:37:57;;;;;;;12.90;6.55;;;;;;;10.03;100.00;97985.41;4907756;29;20055;-89
2022/04/01 04:40:23;;;;;;;12.40;7.32;;;;;;;9.91;100.00;97995.13;4908474;29;20040;-82
2022/04/01 04:43:12;;;;;;;10.45;6.15;;;;;;;9.80;100.00;98002.75;4898935;29;20041;-81
2022/04/01 04:45:54;;;;;;;10.70;6.97;;;;;;;9.72;100.00;98002.19;4911855;29;20044;-85
2022/04/01 04:48:27;;;;;;;13.07;5.93;;;;;;;9.68;100.00;97999.19;4913466;29;20032;-88
2022/04/01 04:50:59;;;;;;;8.43;5.60;;;;;;;9.73;100.00;98015.22;4919686;29;20039;-88
2022/04/01 04:54:22;;;;;;;;;;;;;;;;;;;;;
2022/04/01 04:57:10;;;;;;;10.10;6.18;;;;;;;9.98;100.00;98038.16;4920653;29;20068;-87
2022/04/01 04:59:43;;;;;;;11.45;5.15;;;;;;;10.01;100.00;98014.72;4911504;29;20047;-87
2022/04/01 05:02:26;;;;;;;15.85;5.28;;;;;;;9.81;100.00;97991.13;4912743;29;20044;-87
2022/04/01 05:05:28;;;;;;;;;;;;;;;;;;;;;
2022/04/01 05:08:49;;;;;;;9.68;5.10;;;;;;;9.73;100.00;98009.13;4895350;29;20087;-90
2022/04/01 05:11:24;;;;;;;8.05;4.90;;;;;;;9.71;100.00;98005.91;4893470;29;20045;-86
2022/04/01 05:14:15;;;;;;;13.40;5.15;;;;;;;9.77;100.00;98011.13;4895216;29;20041;-89
2022/04/01 05:17:04;;;;;;;10.85;5.88;;;;;;;9.76;100.00;98003.38;4908240;29;20068;-88
2022/04/01 05:19:32;;;;;;;11.80;5.20;;;;;;;9.76;100.00;98004.19;4898643;29;20048;-86
2022/04/01 05:22:09;;;;;;;8.15;4.78;;;;;;;9.77;100.00;98013.75;4908272;29;20041;-89
2022/04/01 05:24:53;;;;;;;9.18;5.20;;;;;;;9.98;100.00;98027.59;4915079;29;20048;-88
2022/04/01 05:27:30;;;;;;;10.07;5.05;;;;;;;10.02;100.00;98023.47;4898724;29;20044;-85
2022/04/01 05:30:13;;;;;;;10.40;5.35;;;;;;;9.83;100.00;98025.31;4901391;29;20043;-85
2022/04/01 05:33:08;;;;;;;9.45;5.05;;;;;;;9.74;100.00;98026.63;4898373;29;20055;-91
2022/04/01 05:35:43;;;;;;;10.38;5.05;;;;;;;9.95;100.00;98031.47;4902089;29;20092;-88
2022/04/01 05:38:11;;;;;;;11.18;4.72;;;;;;;9.99;100.00;98031.84;4886299;29;20044;-88
2022/04/01 05:40:39;;;;;;;10.00;4.47;;;;;;;9.97;100.00;98039.22;4900807;29;20068;-87
2022/04/01 05:43:07;;;;;;;9.48;5.20;;;;;;;10.11;100.00;98048.66;4899133;29;20032;-88
2022/04/01 05:45:36;;;;;;;11.25;5.25;;;;;;;10.19;100.00;98040.44;4906182;29;20045;-92
2022/04/01 05:48:09;;;;;;;10.80;5.20;;;;;;;10.23;100.00;98026.56;4899590;29;20064;-89
2022/04/01 05:50:43;;;;;;;10.15;4.80;;;;;;;10.25;100.00;98039.56;4898790;29;20041;-88
2022/04/01 05:53:11;;;;;;;12.10;5.53;;;;;;;10.12;100.00;98043.13;4887879;29;20047;-92
2022/04/01 05:55:50;;;;;;;11.68;5.50;;;;;;;10.17;100.00;98048.63;4901785;29;20064;-89
2022/04/01 05:58:17;;;;;;;10.82;5.43;;;;;;;10.12;100.00;98044.94;4886071;29;20408;-89
2022/04/01 06:00:59;;;;;;;10.63;5.63;;;;;;;10.20;100.00;98050.00;4901758;29;20040;-90
2022/04/01 06:03:34;;;;;;;9.65;5.85;;;;;;;10.31;100.00;98049.25;4900614;29;20378;-89
2022/04/01 06:06:17;;;;;;;8.27;5.32;;;;;;;10.31;100.00;98049.25;4902462;29;20044;-86
2022/04/01 06:08:48;;;;;;;9.95;5.68;;;;;;;10.33;100.00;98057.81;4911247;29;20041;-85
2022/04/01 06:11:35;;;;;;;10.27;4.72;;;;;;;10.24;100.00;98053.84;4894541;29;20041;-90
2022/04/01 06:14:34;;;;;;;6.40;4.95;;;;;;;10.05;100.00;98058.25;4899559;29;20104;-85
2022/04/01 06:17:29;;;;;;;10.98;4.97;;;;;;;10.30;100.00;98064.34;4900369;29;20507;-90
2022/04/01 06:19:57;;;;;;;10.38;5.15;;;;;;;9.99;100.00;98056.47;4868556;29;20501;-86
2022/04/01 06:22:28;;;;;;;12.50;5.30;;;;;;;10.11;100.00;98064.53;4901791;29;20109;-88
2022/04/01 06:25:13;;;;;;;11.20;5.00;;;;;;;10.11;100.00;98064.53;4899109;29;20488;-89
2022/04/01 06:27:48;;;;;;;12.48;5.03;;;;;;;9.96;100.00;98058.75;4884688;29;20040;-89
2022/04/01 06:30:20;;;;;;;8.70;4.80;;;;;;;9.90;100.00;98060.44;4900334;29;20044;-91
2022/04/01 06:33:40;;;;;;;16.40;6.20;;;;;;;9.77;100.00;98045.50;4903273;29;20048;-90
2022/04/01 06:36:40;;;;;;;21.08;7.22;;;;;;;9.79;100.00;98051.38;4840330;29;20145;-90
2022/04/01 06:39:13;;;;;;;18.80;7.38;;;;;;;9.88;100.00;98056.41;4897289;29;20523;-92
2022/04/01 06:41:51;;;;;;;14.77;7.13;;;;;;;9.90;100.00;98072.84;4885974;29;20043;-88
2022/04/01 06:44:45;;;;;;;9.33;5.10;;;;;;;9.88;100.00;98069.63;4893878;29;20047;-88
2022/04/01 06:47:17;;;;;;;13.85;6.00;;;;;;;9.88;100.00;98067.00;4896055;29;20289;-90
2022/04/01 06:49:43;;;;;;;8.30;4.95;;;;;;;9.82;100.00;98071.28;4882027;29;20075;-83
2022/04/01 06:52:27;;;;;;;6.30;3.90;;;;;;;9.91;100.00;98063.91;4891510;29;20362;-85
2022/04/01 06:55:19;;;;;;;7.67;3.77;;;;;;;9.96;100.00;98064.03;4862496;29;20052;-84
2022/04/01 06:58:14;;;;;;;7.40;4.57;;;;;;;10.04;100.00;98061.91;4890170;29;20044;-86
2022/04/01 07:01:02;;;;;;;8.82;4.50;;;;;;;10.05;100.00;98060.09;4898396;29;20040;-88
2022/04/01 07:03:28;;;;;;;17.35;4.80;;;;;;;10.13;100.00;98060.63;4908042;29;20040;-83
2022/04/01 07:05:58;;;;;;;10.95;4.70;;;;;;;10.23;100.00;98060.16;4923261;29;20520;-84
2022/04/01 07:08:24;;;;;;;9.90;4.38;;;;;;;10.33;100.00;98052.50;4924625;29;20036;-80
2022/04/01 07:10:49;;;;;;;9.02;4.70;;;;;;;10.33;100.00;98050.66;4909514;29;20039;-84
2022/04/01 07:13:16;;;;;;;11.65;4.20;;;;;;;10.37;100.00;98059.75;4881956;29;20115;-84
2022/04/01 07:15:41;;;;;;;13.43;5.10;;;;;;;10.32;100.00;98061.47;4899343;29;20032;-85
2022/04/01 07:18:07;;;;;;;7.65;4.00;;;;;;;10.25;100.00;98060.72;4898621;29;20062;-83
2022/04/01 07:20:33;;;;;;;12.73;4.55;;;;;;;10.20;100.00;98064.06;4878335;29;20105;-85
2022/04/01 07:22:59;;;;;;;6.78;3.85;;;;;;;10.20;100.00;98074.63;4876068;29;20041;-84
2022/04/01 07:25:25;;;;;;;11.27;3.88;;;;;;;10.13;100.00;98075.69;4899586;29;20059;-84
2022/04/01 07:27:53;;;;;;;10.80;3.70;;;;;;;10.20;100.00;98081.75;4899822;29;20047;-84
2022/04/01 07:30:18;;;;;;;6.68;3.70;;;;;;;10.21;100.00;98075.41;4882025;29;20055;-84
2022/04/01 07:32:44;;;;;;;6.50;3.00;;;;;;;10.13;100.00;98073.84;4899044;29;20033;-84
2022/04/01 07:35:13;;;;;;;9.25;3.58;;;;;;;10.24;100.00;98080.31;4899901;29;20041;-83
2022/04/01 07:37:41;;;;;;;6.07;4.10;;;;;;;10.46;100.00;98080.66;4901181;29;20033;-88
2022/04/01 07:40:08;;;;;;;9.40;3.90;;;;;;;10.35;100.00;98087.50;4899985;29;20096;-87
2022/04/01 07:42:35;;;;;;;7.40;3.97;;;;;;;10.34;100.00;98077.97;4900929;29;20041;-87
2022/04/01 07:45:03;;;;;;;8.52;3.90;;;;;;;10.43;100.00;98068.69;4901602;29;20044;-82
2022/04/01 07:47:31;;;;;;;9.38;4.18;;;;;;;10.61;100.00;98065.19;4902522;29;20056;-85
2022/04/01 07:49:57;;;;;;;10.05;4.97;;;;;;;10.61;100.00;98081.91;4902431;29;20036;-88
2022/04/01 07:52:23;;;;;;;19.48;6.07;;;;;;;10.60;100.00;98076.84;4901282;29;20100;-85
2022/04/01 07:54:50;;;;;;;9.15;5.53;;;;;;;10.77;100.00;98076.00;4905530;29;20124;-82
2022/04/01 07:57:18;;;;;;;10.68;5.70;;;;;;;10.88;100.00;98083.22;4912753;29;20032;-84
2022/04/01 07:59:44;;;;;;;9.82;5.22;;;;;;;11.00;100.00;98072.69;4914807;29;20127;-84
2022/04/01 08:02:10;;;;;;;12.80;6.38;;;;;;;11.00;100.00;98082.47;4905688;29;20044;-86
2022/04/01 08:04:36;;;;;;;11.80;6.43;;;;;;;10.99;100.00;98073.69;4923366;29;20049;-86
2022/04/01 08:07:02;;;;;;;14.15;5.93;;;;;;;11.00;100.00;98085.94;4916703;29;20032;-86
2022/04/01 08:09:28;;;;;;;10.57;5.63;;;;;;;11.18;100.00;98087.72;4901238;29;20040;-85
2022/04/01 08:11:54;;;;;;;12.10;5.38;;;;;;;11.25;100.00;98093.72;4919757;29;20016;-87
2022/04/01 08:14:20;;;;;;;11.63;5.00;;;;;;;11.26;100.00;98092.72;4903026;29;20460;-85
2022/04/01 08:16:47;;;;;;;8.95;4.25;;;;;;;11.43;100.00;98096.34;4895648;29;20103;-86
2022/04/01 08:19:13;;;;;;;10.65;4.63;;;;;;;11.81;100.00;98094.13;4912092;29;20083;-84
2022/04/01 08:21:39;;;;;;;9.18;4.18;;;;;;;11.78;100.00;98099.91;4906958;29;20025;-86
2022/04/01 08:24:05;;;;;;;13.15;3.30;;;;;;;11.74;100.00;98096.06;4893591;29;20532;-84
2022/04/01 08:26:31;;;;;;;7.45;3.08;;;;;;;11.71;100.00;98104.50;4904526;29;20067;-88
2022/04/01 08:28:56;;;;;;;6.05;3.10;;;;;;;11.70;100.00;98094.91;4903904;29;20031;-85
2022/04/01 08:31:22;;;;;;;11.75;3.78;;;;;;;11.87;100.00;98098.50;4895115;29;20032;-91
2022/04/01 08:33:50;;;;;;;15.00;3.70;;;;;;;11.93;100.00;98105.56;4904287;29;20039;-88
2022/04/01 08:36:17;;;;;;;10.75;3.28;;;;;;;12.00;100.00;98099.34;4911361;29;20029;-86
2022/04/01 08:38:43;;;;;;;8.07;2.83;;;;;;;12.11;100.00;98114.47;4911580;29;20119;-86
2022/04/01 08:41:09;;;;;;;4.97;2.75;;;;;;;12.12;100.00;98110.78;4902675;29;20469;-87
2022/04/01 08:43:39;;;;;;;9.68;2.75;;;;;;;12.33;100.00;98107.53;4884872;29;20051;-86
2022/04/01 08:46:07;;;;;;;10.13;2.88;;;;;;;12.60;100.00;98110.50;4894213;29;20499;-88
2022/04/01 08:48:35;;;;;;;11.85;2.75;;;;;;;12.67;100.00;98104.03;4874237;29;20039;-84
2022/04/01 08:51:00;;;;;;;9.13;2.45;;;;;;;12.99;100.00;98107.06;4912802;29;20205;-90
2022/04/01 08:53:26;;;;;;;11.00;2.70;;;;;;;13.05;100.00;98111.44;4900447;29;20047;-87
2022/04/01 08:55:55;;;;;;;9.52;1.90;;;;;;;13.43;100.00;98113.50;4898288;29;20548;-87
2022/04/01 08:58:23;;;;;;;6.50;2.10;;;;;;;13.65;100.00;98117.09;4906688;29;20120;-88
2022/04/01 09:00:52;;;;;;;4.65;1.67;;;;;;;13.78;100.00;98124.78;4905028;29;20074;-88
2022/04/01 09:03:20;;;;;;;7.35;1.92;;;;;;;13.71;100.00;98120.66;4914953;29;20127;-86
2022/04/01 09:05:51;;;;;;;6.07;2.05;;;;;;;13.57;100.00;98130.78;4899844;29;20036;-84
2022/04/01 09:08:23;;;;;;;5.78;1.90;;;;;;;13.56;100.00;98126.50;4908420;29;20040;-85
2022/04/01 09:10:52;;;;;;;6.78;1.70;;;;;;;13.60;100.00;98137.47;4909870;29;20175;-87
2022/04/01 09:13:18;;;;;;;9.05;1.65;;;;;;;13.77;100.00;98147.13;4902396;29;20111;-86
2022/04/01 09:15:44;;;;;;;5.82;1.60;;;;;;;14.20;100.00;98151.81;4896178;29;20059;-90
2022/04/01 09:18:10;;;;;;;8.82;1.67;;;;;;;14.73;100.00;98137.94;4898701;29;20064;-87
2022/04/01 09:20:50;;;;;;;6.90;1.40;;;;;;;15.26;91.74;98149.78;4901182;29;20032;-89
2022/04/01 09:23:24;;;;;;;4.47;1.10;;;;;;;16.08;89.18;98152.22;4896017;29;20119;-88
2022/04/01 09:25:51;;;;;;;4.50;0.93;;;;;;;16.00;83.71;98151.66;4908690;29;20063;-88
2022/04/01 09:28:29;;;;;;;2.65;1.10;;;;;;;16.18;86.21;98149.63;4907787;29;20041;-87
2022/04/01 09:31:22;;;;;;;4.28;1.25;;;;;;;16.42;83.74;98156.22;4884282;29;20463;-90
2022/04/01 09:33:51;;;;;;;3.20;1.02;;;;;;;16.76;81.53;98152.22;4883778;29;20045;-89
2022/04/01 09:36:19;;;;;;;3.47;1.25;;;;;;;16.63;82.10;98155.34;4893374;29;20039;-86
2022/04/01 09:39:16;;;;;;;1.42;0.80;;;;;;;17.24;81.42;98163.63;4913901;29;20095;-88
2022/04/01 09:41:46;;;;;;;5.47;0.90;;;;;;;18.33;72.14;98174.03;4897772;29;20132;-88
2022/04/01 09:44:16;;;;;;;2.22;0.65;;;;;;;18.18;68.19;98168.69;4902832;29;20059;-88
2022/04/01 09:46:45;;;;;;;6.05;1.00;;;;;;;17.78;70.21;98166.78;4907938;29;20046;-89
2022/04/01 09:49:12;;;;;;;3.42;0.95;;;;;;;17.78;70.23;98161.41;4915452;29;20047;-88
2022/04/01 09:51:43;;;;;;;2.53;0.80;;;;;;;17.75;71.27;98159.28;4917969;29;20119;-87
2022/04/01 09:54:10;;;;;;;2.65;0.65;;;;;;;17.10;73.05;98151.84;4916748;29;20036;-89
2022/04/01 09:56:46;;;;;;;2.50;0.82;;;;;;;17.12;73.08;98157.72;4914810;29;20484;-87
2022/04/01 09:59:14;;;;;;;6.40;1.17;;;;;;;16.84;76.82;98159.72;4904400;29;20560;-87
2022/04/01 10:01:41;;;;;;;5.20;1.40;;;;;;;16.56;79.08;98154.75;4915863;29;20103;-87
2022/04/01 10:04:09;;;;;;;8.02;1.60;;;;;;;16.52;78.14;98153.63;4916524;29;20040;-87
2022/04/01 10:06:35;;;;;;;8.35;1.48;;;;;;;16.84;77.39;98151.69;4916042;29;20043;-87
2022/04/01 10:09:05;;;;;;;6.70;1.88;;;;;;;17.56;72.69;98156.28;4915560;29;20048;-86
2022/04/01 10:11:31;;;;;;;4.43;1.60;;;;;;;17.23;73.50;98154.03;4915733;29;20044;-85
2022/04/01 10:14:23;;;;;;;4.35;1.48;;;;;;;17.20;73.52;98154.56;4908797;29;20077;-86
2022/04/01 10:16:49;;;;;;;5.27;1.37;;;;;;;18.17;70.37;98157.16;4895528;29;20256;-86
2022/04/01 10:19:24;;;;;;;4.95;1.70;;;;;;;19.10;65.72;98158.34;4897364;29;20029;-84
2022/04/01 10:21:51;;;;;;;4.82;1.80;;;;;;;19.35;64.04;98159.31;4897675;29;20450;-84
2022/04/01 10:24:23;;;;;;;3.58;1.60;;;;;;;19.85;61.84;98164.41;4898736;29;20116;-88
2022/04/01 10:27:11;;;;;;;3.65;1.75;;;;;;;20.51;61.17;98156.66;4904660;29;20036;-87
2022/04/01 10:29:37;;;;;;;2.20;1.10;;;;;;;20.97;59.13;98153.47;4903295;29;20445;-86
2022/04/01 10:32:31;;;;;;;3.47;1.48;;;;;;;19.64;61.85;98157.56;4909206;29;20130;-86
2022/04/01 10:34:59;;;;;;;4.28;1.33;;;;;;;18.98;63.03;98155.16;4903583;29;20048;-87
2022/04/01 10:37:27;;;;;;;2.78;1.52;;;;;;;17.62;67.34;98152.56;4918130;29;20593;-91
2022/04/01 10:40:08;;;;;;;3.72;1.40;;;;;;;17.07;70.09;98149.69;4903617;29;20041;-90
2022/04/01 10:42:37;;;;;;;2.70;1.40;;;;;;;17.21;71.52;98148.91;4898037;29;20039;-91
2022/04/01 10:45:24;;;;;;;2.88;1.50;;;;;;;18.41;65.82;98144.00;4908624;29;20033;-90
2022/04/01 10:53:33;;;;;;;4.55;1.20;;;;;;;20.76;56.50;98142.13;4941008;23;20063;-87
2022/04/01 10:56:26;;;;;;;2.55;1.10;;;;;;;21.23;56.03;98143.22;4900178;29;20037;-85
2022/04/01 10:59:15;;;;;;;2.22;1.30;;;;;;;20.93;55.20;98147.88;4904100;29;20055;-89
2022/04/01 11:02:01;;;;;;;2.40;1.20;;;;;;;20.51;55.48;98139.72;4902336;29;20032;-86
2022/04/01 11:04:29;;;;;;;9.15;1.45;;;;;;;20.08;57.80;98146.78;4901457;29;20083;-87
2022/04/01 11:07:03;;;;;;;11.05;1.98;;;;;;;19.63;59.24;98150.59;4899175;29;20045;-85
2022/04/01 11:09:47;;;;;;;1.67;0.90;;;;;;;21.60;54.57;98145.97;4900181;29;20378;-84
2022/04/01 11:12:15;;;;;;;3.70;1.35;;;;;;;22.17;52.41;98142.16;4901028;29;20040;-87
2022/04/01 11:14:59;;;;;;;6.53;1.50;;;;;;;22.88;48.47;98139.00;4910218;29;20075;-87
2022/04/01 11:17:49;;;;;;;3.90;1.50;;;;;;;23.48;47.62;98136.19;4879166;29;20045;-83
2022/04/01 11:20:26;;;;;;;2.28;1.30;;;;;;;22.66;48.11;98144.31;4900269;29;20056;-85
2022/04/01 11:22:56;;;;;;;5.85;1.33;;;;;;;20.83;50.68;98137.22;4910521;29;20396;-87
2022/04/01 11:25:25;;;;;;;4.32;1.58;;;;;;;19.73;53.92;98144.34;4905456;29;20093;-85
2022/04/01 11:27:51;;;;;;;3.55;1.40;;;;;;;20.07;53.44;98135.22;4888423;29;20036;-83
2022/04/01 11:30:24;;;;;;;5.45;1.30;;;;;;;20.37;51.83;98134.19;4922295;29;20554;-85
2022/04/01 11:32:58;;;;;;;7.38;1.20;;;;;;;21.00;49.93;98126.78;4922335;29;20500;-86
2022/04/01 11:35:39;;;;;;;2.50;0.90;;;;;;;21.50;46.47;98129.94;4924228;29;20040;-84
2022/04/01 11:38:06;;;;;;;10.07;1.40;;;;;;;21.80;46.43;98118.72;4930079;29;20127;-85
2022/04/01 11:40:34;;;;;;;3.70;0.90;;;;;;;21.89;47.02;98122.38;4920576;29;20500;-83
2022/04/01 11:43:04;;;;;;;2.33;1.00;;;;;;;23.17;42.47;98120.59;4895975;29;20036;-83
2022/04/01 11:45:43;;;;;;;2.00;0.90;;;;;;;22.65;42.28;98118.38;4925883;29;20054;-85
2022/04/01 11:48:17;;;;;;;2.53;0.73;;;;;;;21.81;43.69;98125.69;4913012;29;20044;-87
2022/04/01 11:50:46;;;;;;;5.78;1.00;;;;;;;21.72;44.91;98116.66;4924801;29;20487;-84
2022/04/01 11:53:27;;;;;;;1.90;0.75;;;;;;;20.53;45.14;98110.63;4919374;29;20381;-88
2022/04/01 11:55:54;;;;;;;3.55;1.00;;;;;;;20.37;46.25;98109.16;4916489;29;20469;-85
2022/04/01 11:58:21;;;;;;;2.90;0.95;;;;;;;18.76;50.24;98103.69;4901757;29;20060;-84
2022/04/01 12:00:48;;;;;;;2.58;0.70;;;;;;;17.69;54.82;98104.06;4918458;29;20040;-84